Terminal Aerodrome Forecast
Issued by NWS Lake Charles, LA

Home | Current Version | Previous Version | Text Only | Print | Product List | Glossary On
Versions: 1 2 3 4 5 6 7 8 9 10 11 12 13 14 15
725
FTUS44 KLCH 121314 AAB
TAFLCH
TAF AMD
KLCH 121314Z 1213/1312 22003KT 1/4SM FG SCT025
      TEMPO 1213/1215 4SM BR SCT009 BKN025
     FM121500 24005KT P6SM SCT025
     FM122100 26008KT P6SM BKN030
     FM130300 01005KT P6SM BKN025
     FM130600 04010KT P6SM SKC=

USA.gov is the U.S. government's official web portal to all federal, state and local government web resources and services.